createdAt,value
2023-03-26T00:01:51.760Z,99615.53
2023-03-26T00:04:19.947Z,99666.72
2023-03-26T00:06:48.874Z,99656.88
2023-03-26T00:09:16.689Z,99636.28
2023-03-26T00:11:44.302Z,99650.38
2023-03-26T00:14:13.991Z,99668.31
2023-03-26T00:16:44.102Z,99649.13
2023-03-26T00:19:11.727Z,99667.94
2023-03-26T00:21:38.451Z,99672.16
2023-03-26T00:24:06.252Z,99673.25
2023-03-26T00:26:34.097Z,99620.03
2023-03-26T00:29:03.464Z,99672.44
2023-03-26T00:31:30.582Z,99624.75
2023-03-26T00:33:57.756Z,99657.38
2023-03-26T00:36:29.900Z,99661.38
2023-03-26T00:39:06.647Z,99653.38
2023-03-26T00:41:43.071Z,99637.97
2023-03-26T00:44:10.532Z,99671.28
2023-03-26T00:46:37.176Z,99660.03
2023-03-26T00:49:04.223Z,99680.88
2023-03-26T00:51:31.831Z,99678.69
2023-03-26T00:54:04.866Z,99649.75
2023-03-26T00:56:47.436Z,99640.75
2023-03-26T00:59:14.257Z,99634.31
2023-03-26T01:01:40.868Z,99686.00
2023-03-26T01:04:30.610Z,99675.91
2023-03-26T01:07:01.911Z,99659.53
2023-03-26T01:09:35.751Z,99679.78
2023-03-26T01:12:05.917Z,99669.63
2023-03-26T01:14:32.563Z,99687.25
2023-03-26T01:17:02.413Z,99652.84
2023-03-26T01:19:39.581Z,99665.34
2023-03-26T01:22:11.269Z,99688.53
2023-03-26T01:24:48.820Z,99666.81
2023-03-26T01:27:34.447Z,99702.44
2023-03-26T01:30:42.404Z,99684.91
2023-03-26T01:33:30.527Z,99675.25
2023-03-26T01:36:16.737Z,99706.06
2023-03-26T01:39:00.491Z,99697.69
2023-03-26T01:41:39.029Z,99687.63
2023-03-26T01:44:23.460Z,99671.63
2023-03-26T01:46:51.093Z,99684.16
2023-03-26T01:49:18.590Z,99648.44
2023-03-26T01:51:45.098Z,99666.06
2023-03-26T01:54:19.039Z,99666.06
2023-03-26T01:57:12.481Z,99667.22
2023-03-26T02:00:16.408Z,99642.41
2023-03-26T02:03:18.129Z,99697.56
2023-03-26T02:05:52.673Z,99691.88
2023-03-26T02:08:35.874Z,99693.34
2023-03-26T02:11:11.453Z,99644.72
2023-03-26T02:13:43.422Z,99659.72
2023-03-26T02:16:14.501Z,99663.06
2023-03-26T02:18:41.305Z,99653.47
2023-03-26T02:21:12.516Z,99702.19
2023-03-26T02:23:40.896Z,99662.31
2023-03-26T02:26:11.223Z,99665.09
2023-03-26T02:28:38.312Z,99677.53
2023-03-26T02:31:06.223Z,99688.84
2023-03-26T02:33:33.034Z,99690.41
2023-03-26T02:36:03.983Z,99675.09
2023-03-26T02:38:35.325Z,99696.31
2023-03-26T02:41:02.752Z,99673.25
2023-03-26T02:43:29.409Z,99722.50
2023-03-26T02:45:58.828Z,99704.25
2023-03-26T02:48:25.517Z,99706.81
2023-03-26T02:50:54.436Z,99718.41
2023-03-26T02:53:21.997Z,99691.97
2023-03-26T02:55:57.090Z,99703.25
2023-03-26T02:58:25.423Z,99690.91
2023-03-26T03:00:55.094Z,99717.31
2023-03-26T03:03:26.431Z,99718.72
2023-03-26T03:05:57.497Z,99720.38
2023-03-26T03:08:28.201Z,99724.63
2023-03-26T03:11:00.109Z,99718.09
2023-03-26T03:13:27.580Z,99721.25
2023-03-26T03:15:56.783Z,99690.88
2023-03-26T03:18:23.548Z,99716.94
2023-03-26T03:20:50.246Z,99712.22
2023-03-26T03:23:16.786Z,99728.81
2023-03-26T03:25:43.426Z,99718.34
2023-03-26T03:28:09.948Z,99702.81
2023-03-26T03:30:36.502Z,99723.81
2023-03-26T03:33:03.278Z,99711.69
2023-03-26T03:35:30.030Z,99736.59
2023-03-26T03:37:57.753Z,99715.47
2023-03-26T03:40:24.974Z,99720.75
2023-03-26T03:42:51.675Z,99736.25
2023-03-26T03:45:18.164Z,99735.84
2023-03-26T03:47:44.697Z,99717.03
2023-03-26T03:50:11.815Z,99727.69
2023-03-26T03:52:38.335Z,99717.84
2023-03-26T03:55:05.273Z,99741.88
2023-03-26T03:57:33.517Z,99735.28
2023-03-26T04:00:00.188Z,99728.75
2023-03-26T04:02:30.485Z,99724.69
2023-03-26T04:04:59.913Z,99730.66
2023-03-26T04:07:27.474Z,99744.47
2023-03-26T04:09:53.958Z,99739.53
2023-03-26T04:12:35.765Z,99736.75
2023-03-26T04:15:02.317Z,99746.31
2023-03-26T04:17:30.726Z,99752.78
2023-03-26T04:19:57.411Z,99744.91
2023-03-26T04:22:24.429Z,99742.16
2023-03-26T04:24:54.394Z,99738.66
2023-03-26T04:27:27.880Z,99734.63
2023-03-26T04:29:57.934Z,99741.75
2023-03-26T04:32:30.012Z,99723.47
2023-03-26T04:35:00.611Z,99738.47
2023-03-26T04:37:39.556Z,99733.19
2023-03-26T04:40:12.042Z,99735.41
2023-03-26T04:42:45.966Z,99723.94
2023-03-26T04:45:15.128Z,99758.44
2023-03-26T04:47:41.897Z,99750.81
2023-03-26T04:50:09.267Z,99748.72
2023-03-26T04:52:36.681Z,99746.75
2023-03-26T04:55:04.334Z,99765.44
2023-03-26T04:57:37.342Z,99744.03
2023-03-26T05:00:14.807Z,99758.63
2023-03-26T05:02:42.893Z,99758.91
2023-03-26T05:05:10.269Z,99748.72
2023-03-26T05:07:36.882Z,99737.81
2023-03-26T05:10:04.783Z,99756.72
2023-03-26T05:12:31.274Z,99744.50
2023-03-26T05:14:57.810Z,99748.84
2023-03-26T05:17:24.849Z,99746.63
2023-03-26T05:19:52.061Z,99735.56
2023-03-26T05:22:19.314Z,99747.47
2023-03-26T05:24:46.206Z,99740.84
2023-03-26T05:27:25.192Z,99763.16
2023-03-26T05:30:02.464Z,99747.47
2023-03-26T05:32:31.004Z,99735.94
2023-03-26T05:34:57.727Z,99748.72
2023-03-26T05:37:27.043Z,99752.09
2023-03-26T05:39:54.943Z,99771.31
2023-03-26T05:42:21.742Z,99759.88
2023-03-26T05:44:48.094Z,99768.97
2023-03-26T05:47:14.537Z,99762.69
2023-03-26T05:49:41.093Z,99773.28
2023-03-26T05:52:07.668Z,99774.31
2023-03-26T05:54:34.193Z,99756.53
2023-03-26T05:57:00.953Z,99776.41
2023-03-26T05:59:27.505Z,99785.38
2023-03-26T06:01:54.874Z,99750.75
2023-03-26T06:04:33.879Z,99749.56
2023-03-26T06:07:36.623Z,99739.34
2023-03-26T06:10:18.423Z,99729.13
2023-03-26T06:12:53.679Z,99762.75
2023-03-26T06:15:20.471Z,99776.72
2023-03-26T06:17:46.994Z,99804.50
2023-03-26T06:20:13.676Z,99787.13
2023-03-26T06:22:40.275Z,99774.72
2023-03-26T06:25:07.365Z,99779.78
2023-03-26T06:27:33.937Z,99789.91
2023-03-26T06:30:00.578Z,99788.47
2023-03-26T06:32:27.148Z,99795.38
2023-03-26T06:34:53.597Z,99772.75
2023-03-26T06:37:20.223Z,99768.41
2023-03-26T06:40:19.204Z,99764.47
2023-03-26T06:43:07.834Z,99768.28
2023-03-26T06:45:33.100Z,99774.91
2023-03-26T06:48:00.166Z,99775.94
2023-03-26T06:50:27.408Z,99776.47
2023-03-26T06:52:56.940Z,99789.59
2023-03-26T06:55:24.306Z,99777.81
2023-03-26T06:57:51.794Z,99793.13
2023-03-26T07:00:19.287Z,99811.31
2023-03-26T07:02:46.139Z,99781.47
2023-03-26T07:05:13.995Z,99789.47
2023-03-26T07:07:45.998Z,99777.44
2023-03-26T07:10:13.636Z,99782.56
2023-03-26T07:12:41.601Z,99776.97
2023-03-26T07:15:08.431Z,99791.28
2023-03-26T07:17:34.824Z,99798.28
2023-03-26T07:20:01.490Z,99766.56
2023-03-26T07:22:28.224Z,99792.38
2023-03-26T07:24:54.884Z,99800.13
2023-03-26T07:27:42.905Z,99789.41
2023-03-26T07:30:15.031Z,99781.81
2023-03-26T07:32:52.979Z,99784.97
2023-03-26T07:35:42.155Z,99783.00
2023-03-26T07:38:41.125Z,99797.56
2023-03-26T07:41:27.696Z,99789.34
2023-03-26T07:44:22.091Z,99801.22
2023-03-26T07:46:49.317Z,99802.91
2023-03-26T07:49:17.902Z,99782.03
2023-03-26T07:51:44.510Z,99781.38
2023-03-26T07:54:11.475Z,99768.13
2023-03-26T07:57:05.098Z,99787.03
2023-03-26T07:59:40.167Z,99790.13
2023-03-26T08:03:11.176Z,99786.00
2023-03-26T08:05:48.161Z,99796.41
2023-03-26T08:09:05.886Z,99775.47
2023-03-26T08:12:07.964Z,99784.97
2023-03-26T08:14:53.089Z,99770.16
2023-03-26T08:17:56.798Z,99735.72
2023-03-26T08:24:03.665Z,99783.88
2023-03-26T08:27:05.359Z,99775.72
2023-03-26T08:30:06.131Z,99794.78
2023-03-26T08:32:33.060Z,99764.91
2023-03-26T08:35:01.261Z,99775.72
2023-03-26T08:37:29.307Z,99748.56
2023-03-26T08:39:55.895Z,99782.88
2023-03-26T08:43:00.441Z,99797.72
2023-03-26T08:45:57.754Z,99774.28
2023-03-26T08:48:45.519Z,99788.13
2023-03-26T08:51:36.187Z,99779.03
2023-03-26T08:54:25.981Z,99787.84
2023-03-26T08:57:03.195Z,99783.28
2023-03-26T08:59:57.953Z,99757.06
2023-03-26T09:02:53.825Z,99758.28
2023-03-26T09:05:58.613Z,99784.97
2023-03-26T09:08:54.159Z,99765.81
2023-03-26T09:11:44.881Z,99766.06
2023-03-26T09:14:49.106Z,99793.59
2023-03-26T09:18:17.363Z,99776.81
2023-03-26T09:21:22.606Z,99794.66
2023-03-26T09:24:11.074Z,99790.66
2023-03-26T09:27:20.404Z,99774.09
2023-03-26T09:30:01.756Z,99794.03
2023-03-26T09:32:57.589Z,99803.25
2023-03-26T09:35:30.080Z,99795.97
2023-03-26T09:38:30.974Z,99793.28
2023-03-26T09:41:17.432Z,99783.56
2023-03-26T09:44:11.370Z,99774.28
2023-03-26T09:49:58.760Z,99779.13
2023-03-26T09:52:57.651Z,99791.88
2023-03-26T09:55:31.375Z,99758.19
2023-03-26T09:58:26.424Z,99797.13
2023-03-26T10:01:20.477Z,99789.09
2023-03-26T10:04:01.087Z,99796.25
2023-03-26T10:06:41.805Z,99761.88
2023-03-26T10:09:34.395Z,99752.69
2023-03-26T10:12:11.103Z,99771.38
2023-03-26T10:14:52.899Z,99781.28
2023-03-26T10:17:39.820Z,99776.00
2023-03-26T10:20:17.870Z,99772.94
2023-03-26T10:23:02.684Z,99783.03
2023-03-26T10:25:44.641Z,99789.44
2023-03-26T10:28:36.376Z,99766.00
2023-03-26T10:31:44.879Z,99758.97
2023-03-26T10:34:28.038Z,99779.53
2023-03-26T10:37:52.556Z,99785.75
2023-03-26T10:40:22.567Z,99773.97
2023-03-26T10:43:26.365Z,99790.59
2023-03-26T10:46:04.584Z,99793.41
2023-03-26T10:48:49.811Z,99782.94
2023-03-26T10:51:30.577Z,99772.13
2023-03-26T10:54:30.640Z,99794.59
2023-03-26T10:57:00.975Z,99763.81
2023-03-26T10:59:39.578Z,99759.00
2023-03-26T11:02:30.275Z,99783.34
2023-03-26T11:05:35.679Z,99760.28
2023-03-26T11:08:31.024Z,99779.44
2023-03-26T11:18:59.472Z,99753.47
2023-03-26T11:22:00.207Z,99774.00
2023-03-26T11:24:45.365Z,99755.97
2023-03-26T11:27:36.910Z,99764.25
2023-03-26T11:30:20.747Z,99753.63
2023-03-26T11:32:57.175Z,99753.31
2023-03-26T11:35:40.731Z,99733.19
2023-03-26T11:38:39.033Z,99728.75
2023-03-26T11:41:15.098Z,99751.63
2023-03-26T11:43:41.778Z,99741.34
2023-03-26T11:46:24.702Z,99700.22
2023-03-26T11:52:20.665Z,99758.31
2023-03-26T11:58:31.078Z,99726.72
2023-03-26T12:00:57.952Z,99734.91
2023-03-26T12:03:24.770Z,99690.53
2023-03-26T12:13:21.754Z,99701.53
2023-03-26T12:15:49.788Z,99701.59
2023-03-26T12:18:32.250Z,99717.53
2023-03-26T12:21:11.362Z,99705.41
2023-03-26T12:23:43.987Z,99713.03
2023-03-26T12:26:30.767Z,99700.63
2023-03-26T12:28:57.296Z,99688.47
2023-03-26T12:31:26.555Z,99680.13
2023-03-26T12:34:22.626Z,99706.53
2023-03-26T12:37:02.570Z,99674.25
2023-03-26T12:40:08.704Z,99705.09
2023-03-26T12:44:47.787Z,99711.88
2023-03-26T12:45:32.282Z,99677.06
2023-03-26T12:48:29.444Z,99690.19
2023-03-26T12:51:41.893Z,99683.69
2023-03-26T12:54:23.919Z,99685.78
2023-03-26T13:00:17.800Z,99702.47
2023-03-26T13:02:24.046Z,99696.81
2023-03-26T13:03:28.062Z,99674.94
2023-03-26T13:06:09.336Z,99686.19
2023-03-26T13:12:27.095Z,99643.78
2023-03-26T13:15:22.652Z,99676.78
2023-03-26T13:18:16.746Z,99676.06
2023-03-26T13:21:14.212Z,99678.47
2023-03-26T13:23:50.364Z,99667.06
2023-03-26T13:26:49.568Z,99665.03
2023-03-26T13:33:11.869Z,99675.94
2023-03-26T13:36:21.813Z,99680.59
2023-03-26T13:39:20.413Z,99682.44
2023-03-26T13:42:11.887Z,99668.97
2023-03-26T13:45:08.730Z,99677.88
2023-03-26T13:48:57.628Z,99630.34
2023-03-26T13:52:07.890Z,99682.94
2023-03-26T13:54:44.236Z,99619.78
2023-03-26T13:57:24.967Z,99648.28
2023-03-26T14:00:12.797Z,99674.09
2023-03-26T14:02:41.337Z,99678.59
2023-03-26T14:05:34.078Z,99661.81
2023-03-26T14:10:57.462Z,99665.63
2023-03-26T14:13:33.066Z,99670.66
2023-03-26T14:16:14.331Z,99676.06
2023-03-26T14:18:52.158Z,99660.97
2023-03-26T14:22:01.128Z,99676.06
2023-03-26T14:24:46.556Z,99674.91
2023-03-26T14:27:40.659Z,99681.56
2023-03-26T14:30:41.973Z,99681.75
2023-03-26T14:33:49.792Z,99683.38
2023-03-26T14:36:30.108Z,99670.97
2023-03-26T14:39:27.077Z,99675.03
2023-03-26T14:42:01.969Z,99657.13
2023-03-26T14:44:56.580Z,99662.06
2023-03-26T14:47:26.958Z,99667.31
2023-03-26T15:09:58.497Z,99658.16
2023-03-26T15:17:05.276Z,99627.41
2023-03-26T15:20:38.002Z,99656.00
2023-03-26T15:23:32.280Z,99642.06
2023-03-26T15:30:42.661Z,99656.59
2023-03-26T15:33:36.041Z,99637.97
2023-03-26T15:36:32.612Z,99633.25
2023-03-26T15:39:23.915Z,99653.72
2023-03-26T15:42:30.510Z,99611.41
2023-03-26T15:45:22.488Z,99653.63
2023-03-26T15:48:11.749Z,99648.69
2023-03-26T15:51:10.493Z,99659.41
2023-03-26T15:53:54.965Z,99649.19
2023-03-26T15:56:53.290Z,99643.44
2023-03-26T15:59:42.601Z,99628.34
2023-03-26T16:02:16.404Z,99641.06
2023-03-26T16:05:03.355Z,99616.66
2023-03-26T16:07:51.812Z,99658.25
2023-03-26T16:10:28.413Z,99616.75
2023-03-26T16:13:26.277Z,99661.44
2023-03-26T16:16:00.784Z,99646.28
2023-03-26T16:19:00.597Z,99661.56
2023-03-26T16:21:33.084Z,99641.47
2023-03-26T16:24:28.956Z,99650.06
2023-03-26T16:27:14.008Z,99650.53
2023-03-26T16:30:38.080Z,99664.56
2023-03-26T16:33:17.770Z,99641.19
2023-03-26T16:36:03.822Z,99619.03
2023-03-26T16:38:57.212Z,99629.03
2023-03-26T16:41:33.396Z,99633.06
2023-03-26T16:44:18.266Z,99670.53
2023-03-26T16:46:53.934Z,99681.38
2023-03-26T16:50:08.932Z,99649.16
2023-03-26T16:52:50.532Z,99672.44
2023-03-26T16:55:34.634Z,99651.66
2023-03-26T16:58:28.135Z,99669.31
2023-03-26T17:01:21.474Z,99631.88
2023-03-26T17:04:01.745Z,99656.41
2023-03-26T17:06:48.924Z,99667.22
2023-03-26T17:09:31.776Z,99639.97
2023-03-26T17:12:29.659Z,99673.25
2023-03-26T17:15:04.945Z,99667.88
2023-03-26T17:17:59.034Z,99692.19
2023-03-26T17:20:40.955Z,99660.44
2023-03-26T17:23:22.754Z,99690.66
2023-03-26T17:26:01.142Z,99693.00
2023-03-26T17:29:03.020Z,99700.03
2023-03-26T17:34:38.577Z,99704.44
2023-03-26T17:37:29.445Z,99664.91
2023-03-26T17:40:05.900Z,99691.44
2023-03-26T17:42:37.545Z,99649.00
2023-03-26T17:45:35.122Z,99661.97
2023-03-26T17:48:09.227Z,99721.63
2023-03-26T17:50:50.872Z,99704.41
2023-03-26T17:53:35.479Z,99706.44
2023-03-26T17:56:07.185Z,99718.69
2023-03-26T17:58:48.180Z,99723.53
2023-03-26T18:01:42.377Z,99655.91
2023-03-26T18:08:20.219Z,99719.34
2023-03-26T18:11:26.156Z,99719.81
2023-03-26T18:17:29.997Z,99731.56
2023-03-26T18:20:15.726Z,99686.28
2023-03-26T18:27:20.518Z,99701.41
2023-03-26T18:30:27.601Z,99711.88
2023-03-26T18:34:04.654Z,99696.78
2023-03-26T18:50:40.166Z,99769.84
2023-03-26T18:53:49.874Z,99727.38
2023-03-26T18:56:49.975Z,99725.41
2023-03-26T18:59:42.075Z,99715.81
2023-03-26T19:02:44.181Z,99730.59
2023-03-26T19:05:49.615Z,99718.91
2023-03-26T19:08:30.797Z,99711.66
2023-03-26T19:11:31.510Z,99745.88
2023-03-26T19:15:36.215Z,99707.41
2023-03-26T19:22:52.761Z,99704.28
2023-03-26T19:29:04.529Z,99756.16
2023-03-26T19:46:11.017Z,99763.31
2023-03-26T19:49:40.682Z,99783.72
2023-03-26T19:53:18.035Z,99757.88
2023-03-26T20:00:06.356Z,99755.56
2023-03-26T20:09:30.877Z,99739.47
2023-03-26T20:15:48.803Z,99762.72
2023-03-26T20:22:03.332Z,99751.66
2023-03-26T20:25:07.989Z,99820.00
2023-03-26T20:27:38.288Z,99809.88
2023-03-26T20:30:19.069Z,99797.91
2023-03-26T20:33:12.402Z,99799.97
2023-03-26T20:35:45.147Z,99826.16
2023-03-26T20:38:39.465Z,99781.38
2023-03-26T20:41:34.120Z,99826.13
2023-03-26T20:44:28.256Z,99776.91
2023-03-26T20:47:02.489Z,99781.97
2023-03-26T20:49:37.693Z,99792.66
2023-03-26T20:52:09.564Z,99829.25
2023-03-26T20:54:38.854Z,99812.03
2023-03-26T20:57:33.704Z,99833.53
2023-03-26T21:00:00.486Z,99827.97
2023-03-26T21:02:27.042Z,99836.56
2023-03-26T21:04:55.732Z,99828.78
2023-03-26T21:07:42.049Z,99838.50
2023-03-26T21:10:15.832Z,99834.78
2023-03-26T21:12:49.015Z,99809.91
2023-03-26T21:15:22.992Z,99844.16
2023-03-26T21:17:51.807Z,99834.50
2023-03-26T21:20:19.753Z,99843.19
2023-03-26T21:23:00.155Z,99839.81
2023-03-26T21:25:48.392Z,99852.59
2023-03-26T21:28:42.651Z,99857.28
2023-03-26T21:31:40.907Z,99862.28
2023-03-26T21:34:08.516Z,99834.53
2023-03-26T21:36:35.457Z,99848.56
2023-03-26T21:39:03.265Z,99850.44
2023-03-26T21:41:45.940Z,99875.94
2023-03-26T21:44:14.262Z,99857.59
2023-03-26T21:46:48.617Z,99855.53
2023-03-26T21:49:23.066Z,99850.53
2023-03-26T21:52:07.757Z,99848.81
2023-03-26T21:54:34.487Z,99854.94
2023-03-26T21:57:21.274Z,99876.59
2023-03-26T21:59:56.832Z,99885.78
2023-03-26T22:02:42.796Z,99836.28
2023-03-26T22:05:19.927Z,99891.91
2023-03-26T22:07:54.387Z,99839.78
2023-03-26T22:10:21.601Z,99894.94
2023-03-26T22:12:48.483Z,99867.16
2023-03-26T22:15:15.121Z,99873.31
2023-03-26T22:17:54.134Z,99870.81
2023-03-26T22:20:32.926Z,99896.44
2023-03-26T22:23:03.343Z,99857.22
2023-03-26T22:25:30.214Z,99883.00
2023-03-26T22:27:57.527Z,99882.66
2023-03-26T22:30:24.091Z,99871.97
2023-03-26T22:32:51.880Z,99890.88
2023-03-26T22:35:19.028Z,99898.19
2023-03-26T22:37:46.892Z,99870.44
2023-03-26T22:40:13.716Z,99904.47
2023-03-26T22:42:41.406Z,99903.00
2023-03-26T22:45:11.902Z,99914.41
2023-03-26T22:47:39.205Z,99895.47
2023-03-26T22:50:07.623Z,99914.22
2023-03-26T22:52:35.949Z,99888.06
2023-03-26T22:55:03.444Z,99924.25
2023-03-26T22:57:32.767Z,99893.34
2023-03-26T23:00:09.693Z,99890.06
2023-03-26T23:02:36.618Z,99914.00
2023-03-26T23:05:03.238Z,99898.38
2023-03-26T23:07:31.508Z,99894.22
2023-03-26T23:09:58.140Z,99889.75
2023-03-26T23:12:24.679Z,99881.22
2023-03-26T23:14:53.103Z,99893.44
2023-03-26T23:17:29.039Z,99928.25
2023-03-26T23:19:55.721Z,99923.09
2023-03-26T23:22:23.761Z,99931.38
2023-03-26T23:24:51.605Z,99927.94
2023-03-26T23:27:18.091Z,99921.50
2023-03-26T23:29:49.289Z,99948.44
2023-03-26T23:32:23.987Z,99946.13
2023-03-26T23:34:52.123Z,99937.94
2023-03-26T23:37:29.458Z,99936.97
2023-03-26T23:39:55.937Z,99956.13
2023-03-26T23:42:29.315Z,99927.44
2023-03-26T23:44:57.108Z,99937.13
2023-03-26T23:47:23.917Z,99978.44
2023-03-26T23:49:50.615Z,99951.53
2023-03-26T23:52:17.072Z,99969.81
2023-03-26T23:54:44.730Z,99965.75
2023-03-26T23:57:11.341Z,99993.88
2023-03-26T23:59:38.302Z,100003.72
